Steilacoom, Washington
Current Conditions -  °F | °C
As of 11:58 AM on Sunday 23 Nov 2014 (Local Time) from KTCM Reporting Station
Clear Clear  
Wind Chill: 52°   Ceiling: Unl
Heat Index: 52°   Visibility: 10mi
Dew Point: 49°   Wind: 16mph
Humidity: 89%   Direction: 200°SSW
Pressure: 30.14"   Gusts: NA
Location:  47.17°N, 122.59°W
Report Text: KTCM 231958Z AUTO 20014KT 10SM CLR 11/09 A3014 RMK AO2 SLP211 T01090092 $
Loading
Personal Weather Stations






























Interactive Weather Map New forecast layout! Learn more

10-Day Weather Forecast

Advertisements
Track Severe Weather on mobile